Historyczne dane pomiarowe

Dodano dane terminowe – wersja testowa.

Dane z okresu 1951-2019

Wersja bazy: 1.34 [2019-03-16, lista zmian], aktualizacja planowana na 2019-04-15

Dane meteo z obszaru Polski uzyskane na podstawie danych udostępnionych przez Instytut Meteorologii i Gospodarki Wodnej – Państwowy Instytut Badawczy.

 

Wybierz Datę:    

       

TemperaturaWilgotnośćWiatrCiśnienieOpadyŚniegCzas trwania zjawisk
 Stacja t tx tn tng RH VA  wxwx mslp ppp RRR   cm mm wxwxwxwxwxwxwx
1987-08-14 12.8 18.9 5.7- 87.3- 6.0 1.3---- 3.7------------
1987-08-13 12.3 17.1 5.2- 81.0- 4.3 1.7---- 0.0------------
1987-08-12 11.8 16.4 7.0- 82.0- 2.3 2.0---- 0.2------------
1987-08-11 12.1 15.6 11.0- 91.3- 7.0 2.0---- 4.4------------
1987-08-10 13.6 18.5 12.6- 94.3- 6.7 1.7---- 5.4------------
1987-08-09 16.5 22.3 9.2- 73.8- 5.0 1.3---- 0.5------------
1987-08-08 14.3 20.4 10.0- 77.3- 5.0 2.0---- 0.0------------
1987-08-07 11.0 17.0 6.7- 82.8- 5.0 2.0---- 4.7------------
1987-08-06 10.9 15.4 8.0- 81.3- 4.3 3.3---- 0.0------------
1987-08-05 11.7 17.5 5.7- 83.0- 4.0 1.7---- 0.0------------
1987-08-04 14.5 17.3 12.0- 87.0- 6.0 2.0---- 4.0------------
1987-08-03 13.3 18.9 9.8- 86.8- 2.7 2.0---- 0.0------------
1987-08-02 14.2 18.3 11.9- 85.8- 6.7 2.7---- 3.4------------
1987-08-01 15.5 20.2 9.5- 82.8- 6.7 2.3---- 0.8------------
1987-07-31 15.1 19.8 14.6- 93.5- 6.7 2.0---- 3.0------------
1987-07-30 17.3 23.8 10.7- 79.8- 4.7 1.3---- 11.6------------
1987-07-29 14.0 19.6 10.6- 80.3- 6.3 2.0---- 0.0------------
1987-07-28 13.3 16.4 12.0- 83.5- 4.0 2.3---- 1.7------------
1987-07-27 12.2 17.1 7.5- 76.8- 6.0 3.0---- 1.0------------
1987-07-26 12.4 16.7 10.2- 94.5- 7.0 0.7---- 2.6------------
1987-07-25 16.9 23.3 12.9- 92.0- 6.7 1.3---- 23.0------------
1987-07-24 19.6 26.2 15.2- 85.0- 6.0 1.7---- 0.6------------
1987-07-23 18.2 27.5 11.8- 78.0- 5.0 0.7---- 1.1------------
1987-07-22 18.8 21.5 16.4- 90.3- 3.7 1.3---- 0.0------------
1987-07-21 18.2 24.4 10.0- 81.8- 4.3 1.7---- 16.7------------
1987-07-20 18.3 21.5 16.1- 85.8- 5.0 2.0---- 0.0------------
1987-07-19 20.6 25.3 19.2- 85.5- 4.3 2.0---- 5.8------------
1987-07-18 22.4 29.0 16.2- 81.8- 4.7 2.0---- 0.9------------
1987-07-17 19.0 26.8 13.4- 87.0- 7.7 2.3---- 17.5------------
1987-07-16 19.5 27.8 7.9- 65.3- 2.0 1.7---- 6.5------------
1987-07-15 17.0 22.8 10.0- 72.5- 1.3 1.3---- 0.0------------
1987-07-14 15.1 21.0 6.8- 70.0- 1.3 1.7---- 0.0------------
1987-07-13 16.9 22.6 12.2- 78.8- 3.7 1.7---- 0.0------------
1987-07-12 20.0 28.8 11.3- 72.0- 5.3 2.3---- 1.2------------
1987-07-11 16.1 23.4 7.0- 64.3- 4.3 1.7---- 0.0------------
1987-07-10 14.2 19.0 10.0- 72.8- 4.7 2.3---- 0.0------------
1987-07-09 17.0 24.3 13.9- 85.5- 8.0 2.0---- 4.0------------
1987-07-08 21.3 29.3 9.2- 66.3- 3.3 1.7---- 0.4------------
1987-07-07 18.5 26.3 7.4- 68.5- 0.3 1.7---- 0.0------------
1987-07-06 18.3 23.8 8.5- 62.0- 0.7 1.0---- 0.0------------
1987-07-05 15.6 19.9 10.8- 76.8- 5.0 2.3---- 0.0------------
1987-07-04 18.2 23.0 11.0- 75.0- 3.7 1.3---- 0.4------------
1987-07-03 18.6 22.2 14.5- 84.0- 7.0 0.7---- 0.0------------
1987-07-02 16.7 24.8 14.6- 92.8- 8.0 1.3---- 1.4------------
1987-07-01 24.1 30.5 16.6- 75.3- 3.7 1.7---- 0.0------------
1987-06-30 22.9 29.4 14.5- 73.0- 0.7 1.3---- 0.0------------
1987-06-29 20.5 26.3 14.9- 79.0- 5.7 1.0---- 0.0------------
1987-06-28 18.7 24.3 10.3- 77.3- 5.7 2.7---- 0.0------------
1987-06-27 17.1 20.2 14.8- 87.3- 5.7 1.3---- 0.0------------
1987-06-26 16.3 23.8 8.1- 82.5- 4.0 2.0---- 2.0------------
1987-06-25 14.7 18.1 13.4- 80.8- 5.7 2.3---- 0.0------------
1987-06-24 16.3 20.8 11.8- 77.3- 5.7 1.7---- 0.6------------
1987-06-23 16.2 20.2 12.9- 81.8- 6.3 1.7---- 0.0------------
1987-06-22 15.6 22.8 10.4- 80.3- 4.7 1.7---- 5.0------------
1987-06-21 18.4 24.3 8.7- 63.0- 3.3 1.3---- 0.0------------
1987-06-20 14.0 21.9 5.3- 73.8- 4.7 1.3---- 0.0------------
1987-06-19 12.5 17.6 6.4- 68.5- 3.0 1.7---- 0.1------------
1987-06-18 10.5 15.3 4.0- 80.3- 5.0 2.0---- 1.8------------
1987-06-17 11.2 14.6 8.6- 76.3- 4.7 2.3---- 0.1------------
1987-06-16 13.0 21.9 10.0- 87.8- 7.3 4.0---- 2.7------------
330.4 ms

 

Źródłem pochodzenia danych jest Instytut Meteorologii i Gospodarki Wodnej – Państwowy Instytut Badawczy. Dane Instytutu Meteorologii i Gospodarki Wodnej – Państwowego Instytutu Badawczego zostały przetworzone.

Dane źródłowe można odnaleźć na stronie https://dane.imgw.pl